createdAt,value
2023-05-10T00:00:32.994Z,69
2023-05-10T00:00:58.051Z,69
2023-05-10T00:01:28.218Z,69
2023-05-10T00:01:59.901Z,69
2023-05-10T00:02:30.332Z,69
2023-05-10T00:03:02.005Z,68
2023-05-10T00:03:32.269Z,67
2023-05-10T00:04:03.885Z,67
2023-05-10T00:04:35.145Z,67
2023-05-10T00:05:06.749Z,67
2023-05-10T00:05:36.201Z,67
2023-05-10T00:06:07.899Z,67
2023-05-10T00:06:38.193Z,68
2023-05-10T00:07:09.965Z,68
2023-05-10T00:07:40.154Z,68
2023-05-10T00:08:11.926Z,68
2023-05-10T00:08:42.393Z,68
2023-05-10T00:09:13.933Z,68
2023-05-10T00:09:45.779Z,68
2023-05-10T00:10:16.591Z,68
2023-05-10T00:10:46.586Z,68
2023-05-10T00:11:17.894Z,68
2023-05-10T00:11:48.153Z,68
2023-05-10T00:12:19.824Z,68
2023-05-10T00:12:50.233Z,68
2023-05-10T00:13:22.523Z,68
2023-05-10T00:13:52.206Z,68
2023-05-10T00:14:23.736Z,68
2023-05-10T00:14:55.140Z,68
2023-05-10T00:15:27.135Z,68
2023-05-10T00:15:56.211Z,68
2023-05-10T00:16:27.797Z,73
2023-05-10T00:16:58.225Z,73
2023-05-10T00:17:29.965Z,73
2023-05-10T00:18:00.242Z,74
2023-05-10T00:18:31.887Z,74
2023-05-10T00:19:02.308Z,74
2023-05-10T00:19:33.891Z,74
2023-05-10T00:20:06.528Z,74
2023-05-10T00:20:37.744Z,74
2023-05-10T00:21:06.225Z,74
2023-05-10T00:21:37.885Z,72
2023-05-10T00:22:08.160Z,72
2023-05-10T00:22:39.980Z,73
2023-05-10T00:23:10.185Z,73
2023-05-10T00:23:42.128Z,74
2023-05-10T00:24:12.667Z,75
2023-05-10T00:24:43.891Z,76
2023-05-10T00:25:15.784Z,76
2023-05-10T00:25:46.186Z,76
2023-05-10T00:26:16.183Z,74
2023-05-10T00:26:48.540Z,74
2023-05-10T00:27:18.203Z,75
2023-05-10T00:27:49.986Z,74
2023-05-10T00:28:20.287Z,74
2023-05-10T00:28:51.856Z,75
2023-05-10T00:29:22.322Z,75
2023-05-10T00:29:53.832Z,76
2023-05-10T00:30:25.961Z,75
2023-05-10T00:30:55.899Z,75
2023-05-10T00:31:26.212Z,74
2023-05-10T00:31:57.877Z,74
2023-05-10T00:32:28.219Z,73
2023-05-10T00:32:59.904Z,73
2023-05-10T00:33:30.129Z,74
2023-05-10T00:34:01.968Z,75
2023-05-10T00:34:32.639Z,76
2023-05-10T00:35:04.520Z,74
2023-05-10T00:35:35.153Z,74
2023-05-10T00:36:06.146Z,74
2023-05-10T00:36:36.148Z,74
2023-05-10T00:37:07.923Z,74
2023-05-10T00:37:38.682Z,73
2023-05-10T00:38:09.926Z,73
2023-05-10T00:38:40.221Z,73
2023-05-10T00:39:11.908Z,72
2023-05-10T00:39:42.212Z,72
2023-05-10T00:40:20.001Z,72
2023-05-10T00:40:47.853Z,74
2023-05-10T00:41:15.353Z,74
2023-05-10T00:41:46.851Z,76
2023-05-10T00:42:17.199Z,76
2023-05-10T00:42:48.885Z,75
2023-05-10T00:43:19.173Z,75
2023-05-10T00:43:50.879Z,75
2023-05-10T00:44:21.667Z,75
2023-05-10T00:44:52.885Z,75
2023-05-10T00:45:24.092Z,75
2023-05-10T00:45:56.007Z,74
2023-05-10T00:46:25.656Z,74
2023-05-10T00:46:57.255Z,74
2023-05-10T00:47:27.147Z,73
2023-05-10T00:47:58.968Z,73
2023-05-10T00:48:29.161Z,73
2023-05-10T00:49:01.145Z,72
2023-05-10T00:49:31.235Z,72
2023-05-10T00:50:03.563Z,71
2023-05-10T00:50:33.190Z,70
2023-05-10T00:51:05.861Z,70
2023-05-10T00:51:35.172Z,70
2023-05-10T00:52:06.884Z,69
2023-05-10T00:52:37.211Z,70
2023-05-10T00:53:09.004Z,69
2023-05-10T00:53:39.222Z,70
2023-05-10T00:54:10.884Z,70
2023-05-10T00:54:41.175Z,70
2023-05-10T00:55:13.534Z,70
2023-05-10T00:55:43.138Z,71
2023-05-10T00:56:16.259Z,71
2023-05-10T00:56:45.540Z,71
2023-05-10T00:57:16.839Z,71
2023-05-10T00:57:47.671Z,70
2023-05-10T00:58:19.104Z,70
2023-05-10T00:58:49.198Z,69
2023-05-10T00:59:20.882Z,69
2023-05-10T00:59:51.161Z,69
2023-05-10T01:00:24.237Z,69
2023-05-10T01:00:53.911Z,70
2023-05-10T01:01:25.903Z,71
2023-05-10T01:01:55.215Z,71
2023-05-10T01:02:27.044Z,72
2023-05-10T01:02:57.639Z,72
2023-05-10T01:03:28.937Z,72
2023-05-10T01:03:59.150Z,70
2023-05-10T01:04:30.912Z,70
2023-05-10T01:05:02.401Z,70
2023-05-10T01:05:32.877Z,69
2023-05-10T01:06:03.184Z,69
2023-05-10T01:06:35.848Z,69
2023-05-10T01:07:05.421Z,69
2023-05-10T01:07:36.851Z,69
2023-05-10T01:08:07.151Z,69
2023-05-10T01:08:38.879Z,69
2023-05-10T01:09:09.203Z,71
2023-05-10T01:09:40.904Z,70
2023-05-10T01:10:12.292Z,70
2023-05-10T01:10:42.883Z,70
2023-05-10T01:11:13.762Z,70
2023-05-10T01:11:45.853Z,70
2023-05-10T01:12:15.310Z,70
2023-05-10T01:12:47.023Z,71
2023-05-10T01:13:17.214Z,71
2023-05-10T01:13:49.314Z,72
2023-05-10T01:14:19.157Z,71
2023-05-10T01:14:50.861Z,71
2023-05-10T01:15:22.021Z,71
2023-05-10T01:15:53.035Z,70
2023-05-10T01:16:23.364Z,70
2023-05-10T01:16:55.856Z,70
2023-05-10T01:17:25.659Z,70
2023-05-10T01:17:56.927Z,70
2023-05-10T01:18:27.360Z,70
2023-05-10T01:18:58.891Z,70
2023-05-10T01:19:29.161Z,70
2023-05-10T01:20:02.144Z,70
2023-05-10T01:20:37.085Z,70
2023-05-10T01:21:02.929Z,70
2023-05-10T01:21:33.182Z,70
2023-05-10T01:22:06.001Z,70
2023-05-10T01:22:35.127Z,70
2023-05-10T01:23:06.840Z,70
2023-05-10T01:23:37.147Z,70
2023-05-10T01:24:08.923Z,70
2023-05-10T01:24:39.963Z,70
2023-05-10T01:25:11.303Z,69
2023-05-10T01:25:41.144Z,71
2023-05-10T01:26:12.859Z,71
2023-05-10T01:26:43.180Z,73
2023-05-10T01:27:16.144Z,72
2023-05-10T01:27:45.532Z,73
2023-05-10T01:28:16.854Z,73
2023-05-10T01:28:47.125Z,73
2023-05-10T01:29:18.857Z,73
2023-05-10T01:29:55.732Z,73
2023-05-10T01:30:22.680Z,73
2023-05-10T01:30:51.195Z,73
2023-05-10T01:31:22.908Z,75
2023-05-10T01:31:53.150Z,75
2023-05-10T01:32:25.973Z,74
2023-05-10T01:32:55.199Z,72
2023-05-10T01:33:26.905Z,73
2023-05-10T01:33:57.164Z,73
2023-05-10T01:34:28.857Z,73
2023-05-10T01:34:59.196Z,73
2023-05-10T01:35:31.326Z,73
2023-05-10T01:36:01.335Z,73
2023-05-10T01:36:32.864Z,72
2023-05-10T01:37:03.171Z,72
2023-05-10T01:37:35.902Z,71
2023-05-10T01:38:05.852Z,71
2023-05-10T01:38:36.848Z,71
2023-05-10T01:39:07.160Z,71
2023-05-10T01:39:38.952Z,71
2023-05-10T01:40:09.860Z,73
2023-05-10T01:40:40.271Z,73
2023-05-10T01:41:11.129Z,74
2023-05-10T01:41:42.882Z,74
2023-05-10T01:42:13.168Z,74
2023-05-10T01:42:45.848Z,74
2023-05-10T01:43:15.331Z,74
2023-05-10T01:43:46.897Z,74
2023-05-10T01:44:17.170Z,74
2023-05-10T01:44:48.998Z,74
2023-05-10T01:45:20.329Z,74
2023-05-10T01:45:50.933Z,72
2023-05-10T01:46:21.166Z,72
2023-05-10T01:46:52.858Z,73
2023-05-10T01:47:23.164Z,73
2023-05-10T01:47:55.911Z,74
2023-05-10T01:48:25.454Z,75
2023-05-10T01:48:56.879Z,74
2023-05-10T01:49:27.156Z,74
2023-05-10T01:49:58.818Z,75
2023-05-10T01:50:29.621Z,75
2023-05-10T01:51:00.820Z,76
2023-05-10T01:51:31.704Z,75
2023-05-10T01:52:02.954Z,75
2023-05-10T01:52:33.208Z,75
2023-05-10T01:53:05.880Z,74
2023-05-10T01:53:35.162Z,74
2023-05-10T01:54:07.373Z,74
2023-05-10T01:54:37.358Z,76
2023-05-10T01:55:09.366Z,76
2023-05-10T01:55:39.209Z,76
2023-05-10T01:56:10.856Z,75
2023-05-10T01:56:41.129Z,75
2023-05-10T01:57:12.925Z,75
2023-05-10T01:57:43.183Z,75
2023-05-10T01:58:16.117Z,77
2023-05-10T01:58:45.787Z,76
2023-05-10T01:59:16.911Z,76
2023-05-10T01:59:47.190Z,76
2023-05-10T02:00:20.100Z,76
2023-05-10T02:00:55.390Z,77
2023-05-10T02:01:20.992Z,77
2023-05-10T02:01:51.218Z,78
2023-05-10T02:02:23.033Z,78
2023-05-10T02:02:53.181Z,78
2023-05-10T02:03:26.823Z,78
2023-05-10T02:03:55.163Z,77
2023-05-10T02:04:26.901Z,77
2023-05-10T02:04:58.480Z,78
2023-05-10T02:05:29.423Z,78
2023-05-10T02:05:59.307Z,79
2023-05-10T02:06:30.894Z,79
2023-05-10T02:07:01.303Z,77
2023-05-10T02:07:33.672Z,77
2023-05-10T02:08:03.379Z,78
2023-05-10T02:08:35.860Z,79
2023-05-10T02:09:05.434Z,78
2023-05-10T02:09:36.869Z,77
2023-05-10T02:10:07.701Z,77
2023-05-10T02:10:39.028Z,77
2023-05-10T02:11:09.210Z,79
2023-05-10T02:11:40.934Z,79
2023-05-10T02:12:11.159Z,79
2023-05-10T02:12:43.476Z,79
2023-05-10T02:13:13.205Z,79
2023-05-10T02:13:46.164Z,79
2023-05-10T02:14:15.315Z,78
2023-05-10T02:14:46.833Z,78
2023-05-10T02:15:18.024Z,79
2023-05-10T02:15:48.890Z,77
2023-05-10T02:16:19.222Z,77
2023-05-10T02:16:50.857Z,77
2023-05-10T02:17:21.121Z,77
2023-05-10T02:17:53.020Z,78
2023-05-10T02:18:23.956Z,78
2023-05-10T02:18:55.817Z,78
2023-05-10T02:19:25.474Z,78
2023-05-10T02:19:56.939Z,78
2023-05-10T02:20:37.161Z,78
2023-05-10T02:20:59.491Z,78
2023-05-10T02:21:29.162Z,78
2023-05-10T02:22:00.845Z,78
2023-05-10T02:22:31.144Z,78
2023-05-10T02:23:02.943Z,78
2023-05-10T02:23:33.153Z,78
2023-05-10T02:24:05.797Z,79
2023-05-10T02:24:35.545Z,79
2023-05-10T02:25:07.510Z,79
2023-05-10T02:25:37.119Z,79
2023-05-10T02:26:09.020Z,79
2023-05-10T02:26:39.403Z,79
2023-05-10T02:27:11.296Z,77
2023-05-10T02:27:41.126Z,77
2023-05-10T02:28:12.898Z,77
2023-05-10T02:28:43.165Z,77
2023-05-10T02:29:15.821Z,77
2023-05-10T02:29:45.629Z,77
2023-05-10T02:30:19.011Z,76
2023-05-10T02:30:47.389Z,76
2023-05-10T02:31:18.908Z,76
2023-05-10T02:31:49.578Z,76
2023-05-10T02:32:20.850Z,76
2023-05-10T02:32:51.270Z,76
2023-05-10T02:33:22.909Z,76
2023-05-10T02:33:53.186Z,76
2023-05-10T02:34:26.096Z,76
2023-05-10T02:34:55.150Z,76
2023-05-10T02:35:27.324Z,76
2023-05-10T02:35:57.175Z,76
2023-05-10T02:36:28.914Z,76
2023-05-10T02:36:59.137Z,76
2023-05-10T02:37:30.871Z,76
2023-05-10T02:38:01.357Z,76
2023-05-10T02:38:33.183Z,76
2023-05-10T02:39:03.140Z,77
2023-05-10T02:39:36.650Z,78
2023-05-10T02:40:06.253Z,77
2023-05-10T02:40:37.903Z,77
2023-05-10T02:41:07.104Z,77
2023-05-10T02:41:38.148Z,78
2023-05-10T02:42:09.836Z,78
2023-05-10T02:42:40.497Z,78
2023-05-10T02:43:11.853Z,78
2023-05-10T02:43:42.151Z,78
2023-05-10T02:44:13.837Z,78
2023-05-10T02:44:45.314Z,79
2023-05-10T02:45:17.271Z,78
2023-05-10T02:45:46.310Z,78
2023-05-10T02:46:17.916Z,79
2023-05-10T02:46:48.216Z,79
2023-05-10T02:47:19.898Z,79
2023-05-10T02:47:50.209Z,78
2023-05-10T02:48:21.835Z,79
2023-05-10T02:48:52.152Z,78
2023-05-10T02:49:23.854Z,78
2023-05-10T02:49:55.165Z,78
2023-05-10T02:50:27.464Z,77
2023-05-10T02:50:56.124Z,77
2023-05-10T02:51:27.895Z,78
2023-05-10T02:51:58.624Z,78
2023-05-10T02:52:29.854Z,78
2023-05-10T02:53:00.223Z,78
2023-05-10T02:53:31.842Z,79
2023-05-10T02:54:02.279Z,79
2023-05-10T02:54:33.991Z,79
2023-05-10T02:55:05.953Z,79
2023-05-10T02:55:36.075Z,79
2023-05-10T02:56:06.164Z,79
2023-05-10T02:56:37.878Z,79
2023-05-10T02:57:08.216Z,79
2023-05-10T02:57:39.883Z,78
2023-05-10T02:58:10.192Z,78
2023-05-10T02:58:42.361Z,77
2023-05-10T02:59:12.205Z,77
2023-05-10T02:59:43.941Z,77
2023-05-10T03:00:16.665Z,78
2023-05-10T03:00:46.655Z,77
2023-05-10T03:01:16.306Z,77
2023-05-10T03:01:47.979Z,77
2023-05-10T03:02:18.172Z,78
2023-05-10T03:02:50.201Z,78
2023-05-10T03:03:20.394Z,78
2023-05-10T03:03:52.014Z,78
2023-05-10T03:04:22.354Z,77
2023-05-10T03:04:54.336Z,77
2023-05-10T03:05:25.840Z,77
2023-05-10T03:05:56.004Z,78
2023-05-10T03:06:26.267Z,78
2023-05-10T03:06:58.065Z,78
2023-05-10T03:07:28.429Z,78
2023-05-10T03:08:00.038Z,78
2023-05-10T03:08:30.433Z,78
2023-05-10T03:09:02.028Z,78
2023-05-10T03:09:32.443Z,78
2023-05-10T03:10:04.476Z,78
2023-05-10T03:10:35.313Z,78
2023-05-10T03:11:06.604Z,79
2023-05-10T03:11:36.368Z,79
2023-05-10T03:12:08.155Z,79
2023-05-10T03:12:38.161Z,79
2023-05-10T03:13:09.993Z,79
2023-05-10T03:13:40.205Z,79
2023-05-10T03:14:11.921Z,79
2023-05-10T03:14:42.357Z,78
2023-05-10T03:15:15.177Z,78
2023-05-10T03:15:45.486Z,78
2023-05-10T03:16:15.878Z,78
2023-05-10T03:16:46.292Z,79
2023-05-10T03:17:17.937Z,79
2023-05-10T03:17:48.185Z,79
2023-05-10T03:18:20.014Z,79
2023-05-10T03:18:51.021Z,79
2023-05-10T03:19:22.258Z,79
2023-05-10T03:19:52.277Z,79
2023-05-10T03:20:24.611Z,79
2023-05-10T03:20:55.142Z,79
2023-05-10T03:21:26.622Z,79
2023-05-10T03:21:56.247Z,80
2023-05-10T03:22:27.911Z,80
2023-05-10T03:22:58.188Z,80
2023-05-10T03:23:30.007Z,79
2023-05-10T03:24:00.306Z,79
2023-05-10T03:24:32.198Z,79
2023-05-10T03:25:02.760Z,79
2023-05-10T03:25:34.139Z,79
2023-05-10T03:26:05.225Z,80
2023-05-10T03:26:35.929Z,80
2023-05-10T03:27:06.173Z,80
2023-05-10T03:27:38.046Z,80
2023-05-10T03:28:08.308Z,80
2023-05-10T03:28:39.895Z,80
2023-05-10T03:29:10.251Z,80
2023-05-10T03:29:41.958Z,80
2023-05-10T03:30:13.234Z,78
2023-05-10T03:30:44.066Z,78
2023-05-10T03:31:15.447Z,78
2023-05-10T03:31:46.655Z,78
2023-05-10T03:32:16.874Z,79
2023-05-10T03:32:47.941Z,79
2023-05-10T03:33:18.187Z,78
2023-05-10T03:33:49.841Z,78
2023-05-10T03:34:20.181Z,78
2023-05-10T03:34:51.974Z,78
2023-05-10T03:35:22.853Z,79
2023-05-10T03:35:53.797Z,79
2023-05-10T03:36:25.257Z,78
2023-05-10T03:36:55.995Z,78
2023-05-10T03:37:26.140Z,78
2023-05-10T03:37:57.848Z,78
2023-05-10T03:38:30.379Z,78
2023-05-10T03:39:00.370Z,78
2023-05-10T03:39:30.320Z,79
2023-05-10T03:40:02.795Z,79
2023-05-10T03:40:36.786Z,80
2023-05-10T03:41:03.312Z,80
2023-05-10T03:41:35.845Z,79
2023-05-10T03:42:06.240Z,79
2023-05-10T03:42:36.290Z,79
2023-05-10T03:43:08.019Z,79
2023-05-10T03:43:38.304Z,79
2023-05-10T03:44:10.018Z,78
2023-05-10T03:44:40.310Z,78
2023-05-10T03:45:13.016Z,78
2023-05-10T03:45:42.847Z,78
2023-05-10T03:46:14.017Z,78
2023-05-10T03:46:45.378Z,78
2023-05-10T03:47:15.999Z,77
2023-05-10T03:47:46.278Z,77
2023-05-10T03:48:18.380Z,78
2023-05-10T03:48:48.264Z,78
2023-05-10T03:49:19.987Z,77
2023-05-10T03:49:50.399Z,76
2023-05-10T03:50:22.463Z,77
2023-05-10T03:50:52.257Z,77
2023-05-10T03:51:23.993Z,77
2023-05-10T03:51:55.320Z,78
2023-05-10T03:52:26.584Z,78
2023-05-10T03:52:56.344Z,78
2023-05-10T03:53:28.022Z,78
2023-05-10T03:53:58.312Z,79
2023-05-10T03:54:29.977Z,79
2023-05-10T03:55:00.358Z,79
2023-05-10T03:55:32.407Z,79
2023-05-10T03:56:02.410Z,79
2023-05-10T03:56:34.080Z,79
2023-05-10T03:57:05.250Z,79
2023-05-10T03:57:36.056Z,78
2023-05-10T03:58:06.420Z,79
2023-05-10T03:58:37.981Z,79
2023-05-10T03:59:09.243Z,79
2023-05-10T03:59:39.983Z,78
2023-05-10T04:00:11.599Z,78
2023-05-10T04:00:49.644Z,78
2023-05-10T04:01:12.305Z,78
2023-05-10T04:01:44.973Z,78
2023-05-10T04:02:15.372Z,78
2023-05-10T04:02:46.574Z,78
2023-05-10T04:03:16.775Z,78
2023-05-10T04:03:48.134Z,77
2023-05-10T04:04:18.351Z,77
2023-05-10T04:04:50.025Z,77
2023-05-10T04:05:20.835Z,78
2023-05-10T04:05:52.565Z,78
2023-05-10T04:06:22.351Z,77
2023-05-10T04:06:53.924Z,78
2023-05-10T04:07:25.436Z,79
2023-05-10T04:07:56.177Z,77
2023-05-10T04:08:26.479Z,78
2023-05-10T04:08:57.959Z,78
2023-05-10T04:09:28.432Z,78
2023-05-10T04:10:00.080Z,78
2023-05-10T04:10:30.915Z,77
2023-05-10T04:11:02.020Z,77
2023-05-10T04:11:32.286Z,77
2023-05-10T04:12:04.019Z,76
2023-05-10T04:12:35.392Z,78
2023-05-10T04:13:06.306Z,78
2023-05-10T04:13:36.290Z,78
2023-05-10T04:14:08.011Z,77
2023-05-10T04:14:38.327Z,76
2023-05-10T04:15:11.880Z,76
2023-05-10T04:15:40.340Z,76
2023-05-10T04:16:11.985Z,77
2023-05-10T04:16:42.455Z,77
2023-05-10T04:17:14.105Z,76
2023-05-10T04:17:45.396Z,77
2023-05-10T04:18:16.004Z,76
2023-05-10T04:18:46.302Z,76
2023-05-10T04:19:18.372Z,75
2023-05-10T04:19:48.303Z,76
2023-05-10T04:20:20.490Z,76
2023-05-10T04:20:50.274Z,76
2023-05-10T04:21:22.620Z,75
2023-05-10T04:21:52.313Z,75
2023-05-10T04:22:23.965Z,75
2023-05-10T04:22:55.371Z,76
2023-05-10T04:23:26.284Z,75
2023-05-10T04:23:56.254Z,76
2023-05-10T04:24:28.444Z,76
2023-05-10T04:24:58.304Z,75
2023-05-10T04:25:30.445Z,75
2023-05-10T04:26:01.177Z,75
2023-05-10T04:26:32.005Z,76
2023-05-10T04:27:02.515Z,76
2023-05-10T04:27:34.029Z,76
2023-05-10T04:28:05.312Z,76
2023-05-10T04:28:40.325Z,75
2023-05-10T04:29:06.300Z,76
2023-05-10T04:29:37.291Z,76
2023-05-10T04:30:10.692Z,76
2023-05-10T04:30:39.515Z,77
2023-05-10T04:31:11.048Z,78
2023-05-10T04:31:41.266Z,78
2023-05-10T04:32:13.029Z,78
2023-05-10T04:32:43.807Z,79
2023-05-10T04:33:16.000Z,79
2023-05-10T04:33:45.857Z,79
2023-05-10T04:34:16.964Z,81
2023-05-10T04:34:47.242Z,80
2023-05-10T04:35:19.903Z,81
2023-05-10T04:35:49.245Z,82
2023-05-10T04:36:20.954Z,82
2023-05-10T04:36:51.505Z,82
2023-05-10T04:37:22.966Z,83
2023-05-10T04:37:53.318Z,83
2023-05-10T04:38:26.951Z,84
2023-05-10T04:38:55.217Z,84
2023-05-10T04:39:27.045Z,84
2023-05-10T04:39:57.923Z,84
2023-05-10T04:40:37.304Z,85
2023-05-10T04:40:59.272Z,86
2023-05-10T04:41:30.317Z,87
2023-05-10T04:42:02.121Z,87
2023-05-10T04:42:32.410Z,87
2023-05-10T04:43:04.036Z,87
2023-05-10T04:43:35.453Z,88
2023-05-10T04:44:07.221Z,88
2023-05-10T04:44:36.310Z,88
2023-05-10T04:45:09.012Z,88
2023-05-10T04:45:38.324Z,88
2023-05-10T04:46:10.964Z,88
2023-05-10T04:46:40.484Z,89
2023-05-10T04:47:12.773Z,90
2023-05-10T04:47:42.358Z,90
2023-05-10T04:48:14.057Z,90
2023-05-10T04:48:46.130Z,90
2023-05-10T04:49:16.025Z,90
2023-05-10T04:49:46.396Z,91
2023-05-10T04:50:18.748Z,91
2023-05-10T04:50:48.329Z,91
2023-05-10T04:51:19.989Z,91
2023-05-10T04:51:50.392Z,92
2023-05-10T04:52:21.964Z,92
2023-05-10T04:52:53.404Z,92
2023-05-10T04:53:24.042Z,92
2023-05-10T04:54:05.110Z,92
2023-05-10T04:54:26.408Z,92
2023-05-10T04:54:56.323Z,93
2023-05-10T04:55:29.073Z,93
2023-05-10T04:55:58.307Z,93
2023-05-10T04:56:29.939Z,93
2023-05-10T04:57:00.815Z,93
2023-05-10T04:57:32.396Z,93
2023-05-10T04:58:02.370Z,93
2023-05-10T04:58:34.863Z,93
2023-05-10T04:59:05.285Z,93
2023-05-10T04:59:36.492Z,93
2023-05-10T05:00:07.452Z,93
2023-05-10T05:00:47.949Z,93
2023-05-10T05:01:08.352Z,93
2023-05-10T05:01:40.050Z,93
2023-05-10T05:02:10.365Z,93
2023-05-10T05:02:42.002Z,94
2023-05-10T05:03:12.318Z,93
2023-05-10T05:03:44.128Z,93
2023-05-10T05:04:15.868Z,93
2023-05-10T05:04:46.607Z,93
2023-05-10T05:05:17.216Z,93
2023-05-10T05:05:48.012Z,92
2023-05-10T05:06:19.049Z,93
2023-05-10T05:06:51.102Z,93
2023-05-10T05:07:20.344Z,93
2023-05-10T05:07:51.977Z,93
2023-05-10T05:08:22.447Z,93
2023-05-10T05:08:53.999Z,93
2023-05-10T05:09:25.245Z,93
2023-05-10T05:09:55.982Z,93
2023-05-10T05:10:27.240Z,93
2023-05-10T05:10:58.129Z,93
2023-05-10T05:11:28.414Z,93
2023-05-10T05:11:59.992Z,93
2023-05-10T05:12:30.353Z,93
2023-05-10T05:13:03.498Z,93
2023-05-10T05:13:32.370Z,93
2023-05-10T05:14:04.015Z,93
2023-05-10T05:14:35.273Z,93
2023-05-10T05:15:09.604Z,93
2023-05-10T05:15:36.333Z,93
2023-05-10T05:16:07.980Z,93
2023-05-10T05:16:38.276Z,93
2023-05-10T05:17:10.000Z,93
2023-05-10T05:17:40.307Z,93
2023-05-10T05:18:11.940Z,93
2023-05-10T05:18:42.353Z,93
2023-05-10T05:19:13.969Z,93
2023-05-10T05:19:45.739Z,93
2023-05-10T05:20:16.809Z,93
2023-05-10T05:20:47.527Z,93
2023-05-10T05:21:17.939Z,93
2023-05-10T05:21:48.297Z,93
2023-05-10T05:22:19.997Z,93
2023-05-10T05:22:50.326Z,93
2023-05-10T05:23:21.978Z,93
2023-05-10T05:23:52.623Z,93
2023-05-10T05:24:24.022Z,93
2023-05-10T05:24:55.234Z,93
2023-05-10T05:25:27.177Z,93
2023-05-10T05:25:56.317Z,93
2023-05-10T05:26:28.455Z,93
2023-05-10T05:26:58.355Z,92
2023-05-10T05:27:30.032Z,91
2023-05-10T05:28:00.432Z,92
2023-05-10T05:28:31.974Z,92
2023-05-10T05:29:02.439Z,92
2023-05-10T05:29:33.980Z,92
2023-05-10T05:30:06.643Z,92
2023-05-10T05:30:36.253Z,91
2023-05-10T05:31:06.401Z,91
2023-05-10T05:31:38.978Z,91
2023-05-10T05:32:08.551Z,91
2023-05-10T05:32:40.111Z,90
2023-05-10T05:33:10.432Z,90
2023-05-10T05:33:42.167Z,90
2023-05-10T05:34:12.325Z,90
2023-05-10T05:34:44.019Z,91
2023-05-10T05:35:16.257Z,90
2023-05-10T05:35:47.081Z,90
2023-05-10T05:36:16.318Z,90
2023-05-10T05:36:47.977Z,91
2023-05-10T05:37:18.688Z,91
2023-05-10T05:37:49.978Z,91
2023-05-10T05:38:20.293Z,92
2023-05-10T05:38:51.947Z,92
2023-05-10T05:39:22.270Z,92
2023-05-10T05:39:54.489Z,92
2023-05-10T05:40:26.004Z,93
2023-05-10T05:40:55.886Z,93
2023-05-10T05:41:26.298Z,93
2023-05-10T05:41:57.961Z,93
2023-05-10T05:42:28.290Z,93
2023-05-10T05:43:00.000Z,93
2023-05-10T05:43:30.317Z,93
2023-05-10T05:44:01.985Z,94
2023-05-10T05:44:32.308Z,94
2023-05-10T05:45:06.190Z,94
2023-05-10T05:45:35.304Z,94
2023-05-10T05:46:06.615Z,94
2023-05-10T05:46:36.290Z,94
2023-05-10T05:47:07.991Z,94
2023-05-10T05:47:38.385Z,95
2023-05-10T05:48:10.256Z,95
2023-05-10T05:48:40.376Z,95
2023-05-10T05:49:11.891Z,95
2023-05-10T05:49:42.278Z,95
2023-05-10T05:50:14.425Z,95
2023-05-10T05:50:45.372Z,95
2023-05-10T05:51:16.092Z,95
2023-05-10T05:51:46.252Z,95
2023-05-10T05:52:18.086Z,95
2023-05-10T05:52:48.226Z,95
2023-05-10T05:53:20.625Z,95
2023-05-10T05:53:50.367Z,95
2023-05-10T05:54:22.047Z,95
2023-05-10T05:54:52.394Z,96
2023-05-10T05:55:24.668Z,96
2023-05-10T05:55:55.703Z,96
2023-05-10T05:56:26.281Z,96
2023-05-10T05:56:56.479Z,96
2023-05-10T05:57:28.003Z,96
2023-05-10T05:57:58.308Z,96
2023-05-10T05:58:30.059Z,96
2023-05-10T05:59:00.304Z,96
2023-05-10T05:59:31.990Z,96
2023-05-10T06:00:03.958Z,96
2023-05-10T06:00:34.573Z,96
2023-05-10T06:01:05.284Z,96
2023-05-10T06:01:37.214Z,96
2023-05-10T06:02:06.331Z,96
2023-05-10T06:02:38.214Z,97
2023-05-10T06:03:08.366Z,96
2023-05-10T06:03:40.226Z,97
2023-05-10T06:04:10.890Z,97
2023-05-10T06:04:44.661Z,97
2023-05-10T06:05:12.806Z,97
2023-05-10T06:05:44.075Z,97
2023-05-10T06:06:15.433Z,97
2023-05-10T06:06:46.841Z,97
2023-05-10T06:07:16.237Z,97
2023-05-10T06:07:48.066Z,97
2023-05-10T06:08:18.315Z,97
2023-05-10T06:08:49.951Z,97
2023-05-10T06:09:20.343Z,97
2023-05-10T06:09:52.126Z,97
2023-05-10T06:10:22.870Z,97
2023-05-10T06:10:53.982Z,97
2023-05-10T06:11:25.298Z,97
2023-05-10T06:11:56.024Z,97
2023-05-10T06:12:26.322Z,97
2023-05-10T06:12:58.365Z,97
2023-05-10T06:13:28.465Z,97
2023-05-10T06:14:00.156Z,97
2023-05-10T06:14:30.863Z,97
2023-05-10T06:15:03.100Z,97
2023-05-10T06:15:32.448Z,97
2023-05-10T06:16:04.033Z,97
2023-05-10T06:16:35.340Z,97
2023-05-10T06:17:06.361Z,97
2023-05-10T06:17:36.896Z,97
2023-05-10T06:18:08.156Z,97
2023-05-10T06:18:38.416Z,97
2023-05-10T06:19:10.126Z,97
2023-05-10T06:19:40.237Z,97
2023-05-10T06:20:13.033Z,97
2023-05-10T06:20:43.215Z,97
2023-05-10T06:21:13.959Z,97
2023-05-10T06:21:45.558Z,97
2023-05-10T06:22:15.975Z,97
2023-05-10T06:22:46.309Z,97
2023-05-10T06:23:17.996Z,97
2023-05-10T06:23:48.326Z,97
2023-05-10T06:24:19.971Z,97
2023-05-10T06:24:50.273Z,97
2023-05-10T06:25:22.500Z,97
2023-05-10T06:25:52.255Z,97
2023-05-10T06:26:23.997Z,97
2023-05-10T06:26:55.835Z,97
2023-05-10T06:27:26.284Z,97
2023-05-10T06:27:56.306Z,97
2023-05-10T06:28:27.948Z,98
2023-05-10T06:28:58.268Z,98
2023-05-10T06:29:30.002Z,98
2023-05-10T06:30:11.579Z,98
2023-05-10T06:30:33.041Z,98
2023-05-10T06:31:02.877Z,98
2023-05-10T06:31:34.112Z,97
2023-05-10T06:32:05.748Z,97
2023-05-10T06:32:36.078Z,97
2023-05-10T06:33:06.330Z,98
2023-05-10T06:33:38.679Z,98
2023-05-10T06:34:08.285Z,98
2023-05-10T06:34:40.058Z,98
2023-05-10T06:35:11.319Z,97
2023-05-10T06:35:41.990Z,97
2023-05-10T06:36:12.326Z,97
2023-05-10T06:36:44.465Z,97
2023-05-10T06:37:15.491Z,97
2023-05-10T06:37:46.490Z,97
2023-05-10T06:38:16.396Z,97
2023-05-10T06:38:48.002Z,97
2023-05-10T06:39:18.322Z,97
2023-05-10T06:39:50.130Z,97
2023-05-10T06:40:21.423Z,97
2023-05-10T06:40:51.988Z,97
2023-05-10T06:41:24.467Z,97
2023-05-10T06:41:53.287Z,97
2023-05-10T06:42:25.909Z,97
2023-05-10T06:42:55.205Z,97
2023-05-10T06:43:26.959Z,97
2023-05-10T06:43:57.272Z,97
2023-05-10T06:44:29.004Z,97
2023-05-10T06:44:59.227Z,97
2023-05-10T06:45:31.958Z,97
2023-05-10T06:46:01.831Z,97
2023-05-10T06:46:33.060Z,97
2023-05-10T06:47:03.362Z,97
2023-05-10T06:47:38.130Z,97
2023-05-10T06:48:05.685Z,97
2023-05-10T06:48:36.311Z,97
2023-05-10T06:49:08.027Z,97
2023-05-10T06:49:38.370Z,97
2023-05-10T06:50:10.793Z,97
2023-05-10T06:50:40.416Z,97
2023-05-10T06:51:11.914Z,97
2023-05-10T06:51:42.335Z,97
2023-05-10T06:52:14.047Z,97
2023-05-10T06:52:45.656Z,97
2023-05-10T06:53:16.230Z,97
2023-05-10T06:53:46.487Z,97
2023-05-10T06:54:18.086Z,97
2023-05-10T06:54:48.446Z,97
2023-05-10T06:55:20.497Z,97
2023-05-10T06:55:50.286Z,97
2023-05-10T06:56:22.017Z,97
2023-05-10T06:56:52.359Z,97
2023-05-10T06:57:55.346Z,97
2023-05-10T06:58:26.355Z,97
2023-05-10T06:58:56.314Z,97
2023-05-10T06:59:30.935Z,97
2023-05-10T06:59:58.325Z,97
2023-05-10T07:00:32.106Z,97
2023-05-10T07:01:04.252Z,98
2023-05-10T07:01:31.339Z,98
2023-05-10T07:02:03.164Z,97
2023-05-10T07:02:34.188Z,97
2023-05-10T07:03:06.795Z,97
2023-05-10T07:03:35.281Z,97
2023-05-10T07:04:06.999Z,98
2023-05-10T07:04:37.953Z,97
2023-05-10T07:05:09.672Z,97
2023-05-10T07:05:39.641Z,98
2023-05-10T07:06:21.572Z,97
2023-05-10T07:06:41.284Z,98
2023-05-10T07:07:13.629Z,97
2023-05-10T07:07:43.272Z,98
2023-05-10T07:08:16.326Z,98
2023-05-10T07:08:45.996Z,98
2023-05-10T07:09:17.046Z,98
2023-05-10T07:09:47.333Z,98
2023-05-10T07:10:19.583Z,98
2023-05-10T07:10:49.305Z,98
2023-05-10T07:11:21.742Z,98
2023-05-10T07:11:51.468Z,98
2023-05-10T07:12:23.066Z,98
2023-05-10T07:12:53.566Z,98
2023-05-10T07:13:26.049Z,98
2023-05-10T07:13:55.344Z,98
2023-05-10T07:14:27.464Z,98
2023-05-10T07:14:57.262Z,98
2023-05-10T07:15:29.944Z,98
2023-05-10T07:15:59.420Z,98
2023-05-10T07:16:31.042Z,98
2023-05-10T07:17:01.577Z,98
2023-05-10T07:17:33.052Z,98
2023-05-10T07:18:04.115Z,98
2023-05-10T07:18:36.123Z,98
2023-05-10T07:19:05.601Z,98
2023-05-10T07:19:37.079Z,98
2023-05-10T07:20:07.957Z,98
2023-05-10T07:20:40.507Z,98
2023-05-10T07:21:09.432Z,98
2023-05-10T07:21:41.049Z,98
2023-05-10T07:22:11.315Z,98
2023-05-10T07:22:43.065Z,98